createdAt,value
2022-09-22T00:01:34.939Z,98.23
2022-09-22T00:04:07.669Z,98.59
2022-09-22T00:06:42.332Z,100.00
2022-09-22T00:09:13.775Z,100.00
2022-09-22T00:11:44.719Z,100.00
2022-09-22T00:14:16.608Z,100.00
2022-09-22T00:16:47.764Z,100.00
2022-09-22T00:19:19.518Z,100.00
2022-09-22T00:21:49.141Z,100.00
2022-09-22T00:24:18.213Z,100.00
2022-09-22T00:26:45.419Z,100.00
2022-09-22T00:29:15.575Z,100.00
2022-09-22T00:31:54.645Z,100.00
2022-09-22T00:34:25.649Z,100.00
2022-09-22T00:36:55.128Z,100.00
2022-09-22T00:39:25.026Z,100.00
2022-09-22T00:41:53.239Z,100.00
2022-09-22T00:44:34.997Z,100.00
2022-09-22T00:47:14.155Z,100.00
2022-09-22T00:49:53.432Z,100.00
2022-09-22T00:52:31.196Z,100.00
2022-09-22T00:55:03.402Z,100.00
2022-09-22T00:57:36.517Z,100.00
2022-09-22T01:00:09.266Z,100.00
2022-09-22T01:02:37.313Z,100.00
2022-09-22T01:05:05.567Z,100.00
2022-09-22T01:07:35.305Z,100.00
2022-09-22T01:10:02.113Z,100.00
2022-09-22T01:12:32.062Z,99.79
2022-09-22T01:15:19.331Z,98.52
2022-09-22T01:18:07.961Z,98.74
2022-09-22T01:21:13.766Z,97.93
2022-09-22T01:24:39.943Z,98.47
2022-09-22T01:27:50.878Z,98.26
2022-09-22T01:30:23.171Z,98.94
2022-09-22T01:33:16.923Z,99.76
2022-09-22T01:36:21.662Z,100.00
2022-09-22T01:39:03.901Z,100.00
2022-09-22T01:41:53.802Z,100.00
2022-09-22T01:44:31.174Z,100.00
2022-09-22T01:47:07.339Z,100.00
2022-09-22T01:49:40.284Z,100.00
2022-09-22T01:52:15.663Z,100.00
2022-09-22T01:55:02.709Z,100.00
2022-09-22T01:57:40.456Z,100.00
2022-09-22T02:00:10.863Z,100.00
2022-09-22T02:02:50.033Z,100.00
2022-09-22T02:05:30.243Z,100.00
2022-09-22T02:08:02.407Z,100.00
2022-09-22T02:10:40.152Z,100.00
2022-09-22T02:13:07.420Z,100.00
2022-09-22T02:15:34.568Z,100.00
2022-09-22T02:18:12.657Z,100.00
2022-09-22T02:20:40.967Z,100.00
2022-09-22T02:23:08.407Z,100.00
2022-09-22T02:25:39.837Z,100.00
2022-09-22T02:28:09.233Z,100.00
2022-09-22T02:30:36.507Z,100.00
2022-09-22T02:33:07.026Z,100.00
2022-09-22T02:35:40.427Z,100.00
2022-09-22T02:38:19.269Z,100.00
2022-09-22T02:40:57.890Z,100.00
2022-09-22T02:43:50.574Z,100.00
2022-09-22T02:46:24.886Z,100.00
2022-09-22T02:49:00.738Z,100.00
2022-09-22T02:51:30.298Z,100.00
2022-09-22T02:54:20.888Z,100.00
2022-09-22T02:56:48.016Z,100.00
2022-09-22T02:59:17.199Z,100.00
2022-09-22T03:01:44.303Z,100.00
2022-09-22T03:04:12.569Z,100.00
2022-09-22T03:06:42.468Z,100.00
2022-09-22T03:09:09.322Z,100.00
2022-09-22T03:11:36.167Z,100.00
2022-09-22T03:14:03.261Z,100.00
2022-09-22T03:16:30.286Z,100.00
2022-09-22T03:18:57.116Z,100.00
2022-09-22T03:21:25.377Z,100.00
2022-09-22T03:23:52.218Z,100.00
2022-09-22T03:26:21.453Z,100.00
2022-09-22T03:28:48.201Z,100.00
2022-09-22T03:31:15.069Z,100.00
2022-09-22T03:33:44.028Z,100.00
2022-09-22T03:36:10.941Z,100.00
2022-09-22T03:38:39.347Z,100.00
2022-09-22T03:41:12.010Z,100.00
2022-09-22T03:43:42.106Z,100.00
2022-09-22T03:46:09.494Z,100.00
2022-09-22T03:48:42.933Z,100.00
2022-09-22T03:51:12.332Z,100.00
2022-09-22T03:53:40.519Z,100.00
2022-09-22T03:56:10.155Z,100.00
2022-09-22T03:58:38.379Z,100.00
2022-09-22T04:01:08.250Z,100.00
2022-09-22T04:03:40.402Z,100.00
2022-09-22T04:06:08.037Z,100.00
2022-09-22T04:08:38.644Z,100.00
2022-09-22T04:11:07.655Z,100.00
2022-09-22T04:13:35.330Z,100.00
2022-09-22T04:16:04.761Z,100.00
2022-09-22T04:18:42.862Z,100.00
2022-09-22T04:21:17.707Z,100.00
2022-09-22T04:23:44.870Z,100.00
2022-09-22T04:26:13.515Z,100.00
2022-09-22T04:28:41.395Z,100.00
2022-09-22T04:31:11.934Z,100.00
2022-09-22T04:33:44.530Z,100.00
2022-09-22T04:36:11.630Z,100.00
2022-09-22T04:38:44.134Z,100.00
2022-09-22T04:41:14.237Z,100.00
2022-09-22T04:43:55.152Z,100.00
2022-09-22T04:46:28.378Z,100.00
2022-09-22T04:48:58.675Z,100.00
2022-09-22T04:51:25.578Z,100.00
2022-09-22T04:53:52.583Z,100.00
2022-09-22T04:56:21.205Z,100.00
2022-09-22T04:58:49.075Z,100.00
2022-09-22T05:01:15.909Z,100.00
2022-09-22T05:03:42.909Z,100.00
2022-09-22T05:06:09.811Z,100.00
2022-09-22T05:08:36.714Z,100.00
2022-09-22T05:11:03.695Z,100.00
2022-09-22T05:13:32.209Z,100.00
2022-09-22T05:15:59.031Z,100.00
2022-09-22T05:18:25.844Z,100.00
2022-09-22T05:20:52.969Z,100.00
2022-09-22T05:23:22.288Z,100.00
2022-09-22T05:25:49.281Z,100.00
2022-09-22T05:28:16.261Z,100.00
2022-09-22T05:30:44.460Z,100.00
2022-09-22T05:33:11.458Z,100.00
2022-09-22T05:35:38.383Z,100.00
2022-09-22T05:38:05.246Z,100.00
2022-09-22T05:40:33.264Z,100.00
2022-09-22T05:43:00.142Z,100.00
2022-09-22T05:45:27.431Z,100.00
2022-09-22T05:47:55.736Z,100.00
2022-09-22T05:50:22.628Z,100.00
2022-09-22T05:52:49.904Z,100.00
2022-09-22T05:55:17.291Z,100.00
2022-09-22T05:57:44.128Z,100.00
2022-09-22T06:00:12.658Z,100.00
2022-09-22T06:02:53.089Z,100.00
2022-09-22T06:05:22.473Z,100.00
2022-09-22T06:07:57.445Z,100.00
2022-09-22T06:10:24.251Z,100.00
2022-09-22T06:12:51.061Z,100.00
2022-09-22T06:15:17.854Z,100.00
2022-09-22T06:17:44.629Z,100.00
2022-09-22T06:20:11.711Z,100.00
2022-09-22T06:23:21.482Z,100.00
2022-09-22T06:25:48.869Z,100.00
2022-09-22T06:28:18.215Z,98.69
2022-09-22T06:30:45.314Z,100.00
2022-09-22T06:33:12.034Z,98.90
2022-09-22T06:35:41.679Z,96.57
2022-09-22T06:38:14.044Z,89.64
2022-09-22T06:40:42.068Z,88.20
2022-09-22T06:43:16.055Z,85.80
2022-09-22T06:45:58.478Z,82.02
2022-09-22T06:48:25.366Z,81.13
2022-09-22T06:50:54.117Z,89.43
2022-09-22T06:53:27.451Z,88.07
2022-09-22T06:55:59.055Z,74.08
2022-09-22T06:58:28.543Z,68.41
2022-09-22T07:03:47.143Z,56.28
2022-09-22T07:06:19.901Z,54.47
2022-09-22T07:08:49.691Z,51.65
2022-09-22T07:11:44.904Z,50.52
2022-09-22T07:15:03.086Z,49.45
2022-09-22T07:18:36.523Z,47.25
2022-09-22T07:25:21.872Z,44.44
2022-09-22T07:27:56.529Z,45.29
2022-09-22T07:30:40.430Z,45.72
2022-09-22T07:33:07.670Z,47.65
2022-09-22T07:43:45.509Z,49.05
2022-09-22T07:46:56.819Z,50.00
2022-09-22T07:58:53.439Z,51.12
2022-09-22T08:01:38.295Z,50.67
2022-09-22T08:04:06.086Z,48.20
2022-09-22T08:06:34.767Z,49.62
2022-09-22T08:09:01.751Z,50.42
2022-09-22T08:11:29.464Z,50.79
2022-09-22T08:14:01.469Z,49.71
2022-09-22T08:16:34.161Z,48.21
2022-09-22T08:19:04.073Z,47.26
2022-09-22T08:21:32.759Z,47.56
2022-09-22T08:24:03.105Z,46.24
2022-09-22T08:26:29.952Z,45.35
2022-09-22T08:28:58.242Z,43.66
2022-09-22T08:31:27.158Z,42.74
2022-09-22T08:33:58.724Z,41.21
2022-09-22T08:36:32.288Z,43.83
2022-09-22T08:39:00.982Z,44.29
2022-09-22T08:41:45.099Z,43.88
2022-09-22T08:44:21.834Z,44.86
2022-09-22T08:46:50.623Z,45.50
2022-09-22T08:49:28.142Z,44.38
2022-09-22T08:52:00.563Z,45.47
2022-09-22T08:54:30.740Z,45.71
2022-09-22T08:57:28.361Z,46.28
2022-09-22T09:00:05.553Z,46.58
2022-09-22T09:02:39.583Z,47.63
2022-09-22T09:06:03.731Z,47.71
2022-09-22T09:09:11.839Z,48.81
2022-09-22T09:12:09.130Z,48.16
2022-09-22T09:15:24.547Z,49.25
2022-09-22T09:18:01.749Z,48.92
2022-09-22T09:20:38.605Z,47.69
2022-09-22T09:23:17.946Z,48.67
2022-09-22T09:26:08.064Z,48.22
2022-09-22T09:28:41.885Z,48.28
2022-09-22T09:32:25.637Z,47.78
2022-09-22T09:34:56.082Z,46.11
2022-09-22T09:37:31.059Z,42.75
2022-09-22T09:43:46.369Z,40.98
2022-09-22T09:46:30.326Z,38.93
2022-09-22T09:49:08.652Z,37.46
2022-09-22T09:55:49.483Z,40.76
2022-09-22T09:58:16.329Z,42.54
2022-09-22T10:00:57.381Z,41.74
2022-09-22T10:03:32.576Z,39.41
2022-09-22T10:06:03.868Z,38.17
2022-09-22T10:08:34.204Z,38.50
2022-09-22T10:11:04.630Z,38.54
2022-09-22T10:13:35.033Z,38.54
2022-09-22T10:16:20.570Z,38.98
2022-09-22T10:18:50.472Z,37.88
2022-09-22T10:21:21.105Z,36.48
2022-09-22T10:23:49.675Z,36.88
2022-09-22T10:26:25.528Z,35.79
2022-09-22T10:29:16.096Z,34.02
2022-09-22T10:32:01.997Z,34.31
2022-09-22T10:34:32.722Z,34.04
2022-09-22T10:37:01.669Z,34.19
2022-09-22T10:39:39.747Z,33.41
2022-09-22T10:42:22.659Z,33.40
2022-09-22T10:44:52.682Z,32.09
2022-09-22T10:47:33.464Z,32.21
2022-09-22T10:51:12.665Z,31.79
2022-09-22T10:54:58.063Z,30.42
2022-09-22T10:58:21.998Z,30.66
2022-09-22T11:05:49.813Z,30.01
2022-09-22T11:08:26.496Z,28.97
2022-09-22T11:11:34.751Z,29.15
2022-09-22T11:15:33.215Z,30.19
2022-09-22T11:19:33.706Z,29.92
2022-09-22T11:23:03.160Z,28.46
2022-09-22T11:26:11.716Z,29.08
2022-09-22T11:29:19.040Z,28.50
2022-09-22T11:32:05.469Z,28.74
2022-09-22T11:34:55.599Z,27.12
2022-09-22T11:37:44.792Z,27.75
2022-09-22T11:40:29.948Z,27.77
2022-09-22T11:43:21.516Z,28.05
2022-09-22T11:46:00.591Z,29.86
2022-09-22T11:48:49.943Z,29.71
2022-09-22T11:51:51.715Z,32.20
2022-09-22T11:54:45.843Z,33.56
2022-09-22T11:57:18.816Z,31.53
2022-09-22T11:59:56.168Z,35.96
2022-09-22T12:02:33.067Z,36.34
2022-09-22T12:05:13.166Z,38.75
2022-09-22T12:07:53.662Z,37.14
2022-09-22T12:10:32.902Z,36.99
2022-09-22T12:13:01.305Z,38.38
2022-09-22T12:15:41.185Z,39.63
2022-09-22T12:18:17.204Z,40.42
2022-09-22T12:20:58.652Z,41.90
2022-09-22T12:23:40.431Z,42.19
2022-09-22T12:26:12.307Z,41.54
2022-09-22T12:28:43.368Z,43.69
2022-09-22T12:31:14.626Z,44.48
2022-09-22T12:33:53.824Z,44.25
2022-09-22T12:36:31.817Z,44.02
2022-09-22T12:39:18.521Z,44.14
2022-09-22T12:42:08.698Z,43.66
2022-09-22T12:44:46.496Z,44.32
2022-09-22T12:47:23.495Z,43.80
2022-09-22T12:49:57.299Z,44.61
2022-09-22T12:53:04.856Z,43.45
2022-09-22T12:55:34.352Z,45.08
2022-09-22T12:58:03.211Z,43.85
2022-09-22T13:00:35.637Z,44.05
2022-09-22T13:03:40.483Z,44.45
2022-09-22T13:06:53.453Z,42.35
2022-09-22T13:09:23.103Z,43.38
2022-09-22T13:12:42.931Z,43.85
2022-09-22T13:15:19.680Z,41.62
2022-09-22T13:17:49.216Z,42.04
2022-09-22T13:20:21.054Z,43.33
2022-09-22T13:22:48.277Z,43.72
2022-09-22T13:25:21.992Z,45.04
2022-09-22T13:28:02.409Z,42.71
2022-09-22T13:30:30.766Z,44.41
2022-09-22T13:32:57.910Z,45.07
2022-09-22T13:35:27.526Z,44.40
2022-09-22T13:37:57.132Z,43.63
2022-09-22T13:40:28.630Z,42.64
2022-09-22T13:43:02.210Z,44.96
2022-09-22T13:45:30.926Z,43.28
2022-09-22T13:48:09.942Z,41.38
2022-09-22T13:50:48.728Z,42.69
2022-09-22T13:53:20.741Z,41.37
2022-09-22T13:55:50.957Z,43.20
2022-09-22T13:58:29.032Z,42.81
2022-09-22T14:01:26.332Z,42.26
2022-09-22T14:04:38.945Z,40.52
2022-09-22T14:07:31.072Z,42.52
2022-09-22T14:10:04.738Z,41.99
2022-09-22T14:15:50.330Z,43.27
2022-09-22T14:18:25.841Z,43.31
2022-09-22T14:20:54.785Z,43.68
2022-09-22T14:23:28.439Z,43.30
2022-09-22T14:26:01.474Z,42.99
2022-09-22T14:28:36.277Z,44.38
2022-09-22T14:31:15.197Z,43.47
2022-09-22T14:33:44.056Z,44.41
2022-09-22T14:36:19.058Z,43.48
2022-09-22T14:39:01.876Z,42.35
2022-09-22T14:41:37.146Z,42.44
2022-09-22T14:44:23.516Z,42.04
2022-09-22T14:46:57.773Z,41.61
2022-09-22T14:49:41.868Z,43.71
2022-09-22T14:52:24.363Z,41.85
2022-09-22T14:54:55.063Z,44.55
2022-09-22T14:57:23.134Z,42.97
2022-09-22T14:59:57.349Z,41.78
2022-09-22T15:02:27.868Z,42.66
2022-09-22T15:05:03.621Z,43.71
2022-09-22T15:07:35.404Z,42.88
2022-09-22T15:10:07.285Z,42.90
2022-09-22T15:12:38.636Z,41.54
2022-09-22T15:15:21.783Z,43.21
2022-09-22T15:17:51.010Z,43.61
2022-09-22T15:20:19.634Z,43.39
2022-09-22T15:22:46.970Z,43.13
2022-09-22T15:25:16.365Z,43.16
2022-09-22T15:27:43.624Z,43.60
2022-09-22T15:30:15.223Z,43.67
2022-09-22T15:32:45.389Z,43.04
2022-09-22T15:35:13.198Z,44.01
2022-09-22T15:38:38.011Z,43.85
2022-09-22T15:41:43.118Z,42.82
2022-09-22T15:44:41.022Z,44.16
2022-09-22T15:47:21.282Z,45.34
2022-09-22T15:49:48.518Z,43.77
2022-09-22T15:52:46.984Z,44.71
2022-09-22T15:58:43.325Z,43.38
2022-09-22T16:01:10.849Z,43.92
2022-09-22T16:03:41.395Z,45.44
2022-09-22T16:06:14.877Z,44.89
2022-09-22T16:08:45.699Z,43.84
2022-09-22T16:11:16.057Z,43.89
2022-09-22T16:13:44.719Z,43.27
2022-09-22T16:16:12.297Z,45.16
2022-09-22T16:18:39.617Z,46.21
2022-09-22T16:21:17.302Z,46.02
2022-09-22T16:23:44.205Z,46.60
2022-09-22T16:26:46.225Z,47.33
2022-09-22T16:29:24.907Z,46.68
2022-09-22T16:31:52.072Z,46.71
2022-09-22T16:34:19.250Z,46.13
2022-09-22T16:36:57.215Z,47.75
2022-09-22T16:40:53.453Z,47.32
2022-09-22T16:43:56.735Z,49.44
2022-09-22T16:46:42.263Z,49.31
2022-09-22T16:49:14.628Z,49.50
2022-09-22T16:51:47.052Z,49.30
2022-09-22T16:54:29.785Z,50.73
2022-09-22T16:57:03.233Z,50.31
2022-09-22T16:59:30.190Z,51.45
2022-09-22T17:01:59.045Z,51.54
2022-09-22T17:04:26.152Z,51.60
2022-09-22T17:06:53.070Z,52.05
2022-09-22T17:09:20.330Z,52.77
2022-09-22T17:11:50.786Z,52.34
2022-09-22T17:14:20.206Z,51.52
2022-09-22T17:16:49.264Z,52.42
2022-09-22T17:27:00.501Z,53.92
2022-09-22T17:29:30.605Z,54.16
2022-09-22T17:32:14.249Z,53.15
2022-09-22T17:34:49.972Z,54.18
2022-09-22T17:37:40.546Z,55.20
2022-09-22T17:40:30.132Z,54.50
2022-09-22T17:43:29.298Z,54.56
2022-09-22T18:00:55.968Z,57.65
2022-09-22T18:13:12.724Z,62.03
2022-09-22T18:16:22.583Z,62.30
2022-09-22T18:19:06.194Z,61.95
2022-09-22T18:21:34.389Z,61.53
2022-09-22T18:24:02.198Z,62.33
2022-09-22T18:26:29.443Z,62.54
2022-09-22T18:28:58.234Z,63.80
2022-09-22T18:31:30.879Z,63.72
2022-09-22T18:34:00.505Z,63.66
2022-09-22T18:36:29.759Z,62.20
2022-09-22T18:38:56.743Z,62.91
2022-09-22T18:41:24.835Z,63.83
2022-09-22T18:43:52.160Z,65.19
2022-09-22T18:46:22.218Z,65.25
2022-09-22T18:48:51.668Z,66.13
2022-09-22T18:51:18.588Z,65.96
2022-09-22T18:53:45.964Z,66.61
2022-09-22T18:56:25.513Z,67.27
2022-09-22T18:58:56.330Z,67.42
2022-09-22T19:01:26.813Z,66.35
2022-09-22T19:03:56.323Z,66.17
2022-09-22T19:06:25.964Z,66.88
2022-09-22T19:08:52.969Z,66.79
2022-09-22T19:11:20.494Z,65.71
2022-09-22T19:13:50.255Z,65.71
2022-09-22T19:16:17.350Z,65.20
2022-09-22T19:18:44.272Z,65.85
2022-09-22T19:21:14.429Z,65.11
2022-09-22T19:23:41.635Z,65.65
2022-09-22T19:26:08.957Z,65.57
2022-09-22T19:28:36.090Z,66.20
2022-09-22T19:31:03.116Z,67.54
2022-09-22T19:33:30.140Z,68.75
2022-09-22T19:35:57.612Z,70.04
2022-09-22T19:38:25.914Z,72.74
2022-09-22T19:40:53.132Z,71.63
2022-09-22T19:43:20.083Z,73.47
2022-09-22T19:45:47.035Z,73.74
2022-09-22T19:48:17.054Z,73.79
2022-09-22T19:50:44.851Z,71.99
2022-09-22T19:53:11.860Z,74.68
2022-09-22T19:55:40.887Z,74.38
2022-09-22T19:58:08.233Z,76.68
2022-09-22T20:00:35.851Z,77.47
2022-09-22T20:03:03.551Z,77.04
2022-09-22T20:05:34.650Z,77.51
2022-09-22T20:08:02.449Z,78.12
2022-09-22T20:10:30.202Z,77.33
2022-09-22T20:12:59.490Z,77.41
2022-09-22T20:15:28.282Z,76.16
2022-09-22T20:17:55.842Z,77.17
2022-09-22T20:20:24.964Z,75.57
2022-09-22T20:22:58.432Z,77.66
2022-09-22T20:25:32.709Z,77.13
2022-09-22T20:28:01.804Z,77.01
2022-09-22T20:30:33.808Z,76.39
2022-09-22T20:33:05.709Z,76.86
2022-09-22T20:35:34.169Z,76.52
2022-09-22T20:38:03.342Z,76.06
2022-09-22T21:19:49.165Z,82.03
2022-09-22T21:24:03.069Z,83.15
2022-09-22T21:26:34.234Z,82.02
